sensor_id;sensor_type;location;lat;lon;timestamp;P1;durP1;ratioP1;P2;durP2;ratioP2
51764;SDS011;37835;53.256;6.456;2022-07-17T00:00:44;6.00;;;2.80;;
51764;SDS011;37835;53.256;6.456;2022-07-17T00:03:10;12.07;;;2.92;;
51764;SDS011;37835;53.256;6.456;2022-07-17T00:05:36;6.72;;;2.83;;
51764;SDS011;37835;53.256;6.456;2022-07-17T00:08:02;8.13;;;3.00;;
51764;SDS011;37835;53.256;6.456;2022-07-17T00:10:29;8.52;;;2.63;;
51764;SDS011;37835;53.256;6.456;2022-07-17T00:12:55;7.65;;;2.90;;
51764;SDS011;37835;53.256;6.456;2022-07-17T00:15:21;4.93;;;2.72;;
51764;SDS011;37835;53.256;6.456;2022-07-17T00:17:47;8.25;;;3.08;;
51764;SDS011;37835;53.256;6.456;2022-07-17T00:20:12;11.27;;;2.95;;
51764;SDS011;37835;53.256;6.456;2022-07-17T00:22:38;10.52;;;3.13;;
51764;SDS011;37835;53.256;6.456;2022-07-17T00:25:04;5.35;;;3.00;;
51764;SDS011;37835;53.256;6.456;2022-07-17T00:27:30;3.30;;;2.88;;
51764;SDS011;37835;53.256;6.456;2022-07-17T00:29:56;4.22;;;2.97;;
51764;SDS011;37835;53.256;6.456;2022-07-17T00:32:22;7.15;;;3.80;;
51764;SDS011;37835;53.256;6.456;2022-07-17T00:34:49;9.27;;;2.90;;
51764;SDS011;37835;53.256;6.456;2022-07-17T00:37:15;3.20;;;2.83;;
51764;SDS011;37835;53.256;6.456;2022-07-17T00:39:41;5.38;;;3.40;;
51764;SDS011;37835;53.256;6.456;2022-07-17T00:42:10;14.93;;;3.67;;
51764;SDS011;37835;53.256;6.456;2022-07-17T00:44:39;8.35;;;3.40;;
51764;SDS011;37835;53.256;6.456;2022-07-17T00:47:19;7.72;;;3.03;;
51764;SDS011;37835;53.256;6.456;2022-07-17T00:49:48;6.80;;;3.58;;
51764;SDS011;37835;53.256;6.456;2022-07-17T00:52:16;5.90;;;2.90;;
51764;SDS011;37835;53.256;6.456;2022-07-17T00:54:44;5.20;;;3.15;;
51764;SDS011;37835;53.256;6.456;2022-07-17T00:57:12;12.60;;;3.35;;
51764;SDS011;37835;53.256;6.456;2022-07-17T00:59:39;8.50;;;3.40;;
51764;SDS011;37835;53.256;6.456;2022-07-17T01:02:06;5.78;;;3.42;;
51764;SDS011;37835;53.256;6.456;2022-07-17T01:04:33;7.00;;;3.20;;
51764;SDS011;37835;53.256;6.456;2022-07-17T01:07:00;5.78;;;3.28;;
51764;SDS011;37835;53.256;6.456;2022-07-17T01:09:27;6.78;;;3.90;;
51764;SDS011;37835;53.256;6.456;2022-07-17T01:11:53;5.55;;;3.85;;
51764;SDS011;37835;53.256;6.456;2022-07-17T01:14:19;10.05;;;4.10;;
51764;SDS011;37835;53.256;6.456;2022-07-17T01:16:46;8.25;;;4.10;;
51764;SDS011;37835;53.256;6.456;2022-07-17T01:19:13;7.93;;;3.80;;
51764;SDS011;37835;53.256;6.456;2022-07-17T01:21:42;7.82;;;4.40;;
51764;SDS011;37835;53.256;6.456;2022-07-17T01:24:09;6.82;;;4.70;;
51764;SDS011;37835;53.256;6.456;2022-07-17T01:26:36;8.73;;;4.35;;
51764;SDS011;37835;53.256;6.456;2022-07-17T01:29:02;10.23;;;4.80;;
51764;SDS011;37835;53.256;6.456;2022-07-17T01:31:28;7.78;;;4.68;;
51764;SDS011;37835;53.256;6.456;2022-07-17T01:33:53;9.65;;;4.68;;
51764;SDS011;37835;53.256;6.456;2022-07-17T01:36:23;6.60;;;4.22;;
51764;SDS011;37835;53.256;6.456;2022-07-17T01:38:49;7.68;;;4.78;;
51764;SDS011;37835;53.256;6.456;2022-07-17T01:41:15;9.63;;;4.53;;
51764;SDS011;37835;53.256;6.456;2022-07-17T01:43:40;7.78;;;4.80;;
51764;SDS011;37835;53.256;6.456;2022-07-17T01:46:06;11.98;;;5.13;;
51764;SDS011;37835;53.256;6.456;2022-07-17T01:48:32;10.18;;;5.53;;
51764;SDS011;37835;53.256;6.456;2022-07-17T01:50:57;10.43;;;5.32;;
51764;SDS011;37835;53.256;6.456;2022-07-17T01:53:23;11.68;;;5.40;;
51764;SDS011;37835;53.256;6.456;2022-07-17T01:55:49;11.15;;;5.57;;
51764;SDS011;37835;53.256;6.456;2022-07-17T01:58:15;8.00;;;5.03;;
51764;SDS011;37835;53.256;6.456;2022-07-17T02:00:41;14.45;;;5.15;;
51764;SDS011;37835;53.256;6.456;2022-07-17T02:03:07;12.07;;;5.80;;
51764;SDS011;37835;53.256;6.456;2022-07-17T02:05:33;7.75;;;4.88;;
51764;SDS011;37835;53.256;6.456;2022-07-17T02:07:58;10.73;;;5.78;;
51764;SDS011;37835;53.256;6.456;2022-07-17T02:10:24;7.90;;;5.53;;
51764;SDS011;37835;53.256;6.456;2022-07-17T02:12:50;8.80;;;5.57;;
51764;SDS011;37835;53.256;6.456;2022-07-17T02:15:15;9.77;;;5.85;;
51764;SDS011;37835;53.256;6.456;2022-07-17T02:17:41;9.60;;;5.80;;
51764;SDS011;37835;53.256;6.456;2022-07-17T02:20:07;10.65;;;5.28;;
51764;SDS011;37835;53.256;6.456;2022-07-17T02:22:34;8.25;;;5.28;;
51764;SDS011;37835;53.256;6.456;2022-07-17T02:25:00;12.82;;;5.88;;
51764;SDS011;37835;53.256;6.456;2022-07-17T02:27:26;8.55;;;4.88;;
51764;SDS011;37835;53.256;6.456;2022-07-17T02:29:51;11.60;;;5.53;;
51764;SDS011;37835;53.256;6.456;2022-07-17T02:32:17;10.05;;;5.25;;
51764;SDS011;37835;53.256;6.456;2022-07-17T02:34:43;9.57;;;4.75;;
51764;SDS011;37835;53.256;6.456;2022-07-17T02:37:08;9.95;;;5.25;;
51764;SDS011;37835;53.256;6.456;2022-07-17T02:39:35;10.10;;;5.15;;
51764;SDS011;37835;53.256;6.456;2022-07-17T02:42:00;8.50;;;4.78;;
51764;SDS011;37835;53.256;6.456;2022-07-17T02:44:26;9.82;;;4.88;;
51764;SDS011;37835;53.256;6.456;2022-07-17T02:46:51;7.85;;;5.43;;
51764;SDS011;37835;53.256;6.456;2022-07-17T02:49:17;8.48;;;4.97;;
51764;SDS011;37835;53.256;6.456;2022-07-17T02:51:43;14.73;;;4.97;;
51764;SDS011;37835;53.256;6.456;2022-07-17T02:54:08;8.70;;;4.65;;
51764;SDS011;37835;53.256;6.456;2022-07-17T02:56:34;7.78;;;4.30;;
51764;SDS011;37835;53.256;6.456;2022-07-17T02:58:59;5.93;;;4.43;;
51764;SDS011;37835;53.256;6.456;2022-07-17T03:01:25;8.20;;;4.60;;
51764;SDS011;37835;53.256;6.456;2022-07-17T03:03:50;6.78;;;4.38;;
51764;SDS011;37835;53.256;6.456;2022-07-17T03:06:16;7.25;;;4.45;;
51764;SDS011;37835;53.256;6.456;2022-07-17T03:08:41;7.63;;;4.70;;
51764;SDS011;37835;53.256;6.456;2022-07-17T03:11:07;9.55;;;4.60;;
51764;SDS011;37835;53.256;6.456;2022-07-17T03:13:32;9.48;;;4.93;;
51764;SDS011;37835;53.256;6.456;2022-07-17T03:15:58;4.55;;;4.00;;
51764;SDS011;37835;53.256;6.456;2022-07-17T03:18:24;15.82;;;4.80;;
51764;SDS011;37835;53.256;6.456;2022-07-17T03:20:49;8.55;;;4.00;;
51764;SDS011;37835;53.256;6.456;2022-07-17T03:23:15;9.30;;;4.30;;
51764;SDS011;37835;53.256;6.456;2022-07-17T03:25:40;10.00;;;4.20;;
51764;SDS011;37835;53.256;6.456;2022-07-17T03:28:06;7.07;;;3.75;;
51764;SDS011;37835;53.256;6.456;2022-07-17T03:30:32;7.05;;;4.30;;
51764;SDS011;37835;53.256;6.456;2022-07-17T03:32:57;12.18;;;4.43;;
51764;SDS011;37835;53.256;6.456;2022-07-17T03:35:23;9.18;;;4.30;;
51764;SDS011;37835;53.256;6.456;2022-07-17T03:37:49;9.07;;;4.22;;
51764;SDS011;37835;53.256;6.456;2022-07-17T03:40:14;8.88;;;4.45;;
51764;SDS011;37835;53.256;6.456;2022-07-17T03:42:40;9.32;;;4.30;;
51764;SDS011;37835;53.256;6.456;2022-07-17T03:45:06;9.43;;;4.35;;
51764;SDS011;37835;53.256;6.456;2022-07-17T03:47:32;7.32;;;4.50;;
51764;SDS011;37835;53.256;6.456;2022-07-17T03:49:58;5.53;;;3.85;;
51764;SDS011;37835;53.256;6.456;2022-07-17T03:52:24;8.82;;;5.10;;
51764;SDS011;37835;53.256;6.456;2022-07-17T03:54:49;10.25;;;4.80;;
51764;SDS011;37835;53.256;6.456;2022-07-17T03:57:15;6.07;;;4.47;;
51764;SDS011;37835;53.256;6.456;2022-07-17T03:59:41;10.50;;;4.70;;
51764;SDS011;37835;53.256;6.456;2022-07-17T04:02:06;10.35;;;4.25;;
51764;SDS011;37835;53.256;6.456;2022-07-17T04:04:32;11.88;;;4.43;;
51764;SDS011;37835;53.256;6.456;2022-07-17T04:06:57;8.80;;;4.22;;
51764;SDS011;37835;53.256;6.456;2022-07-17T04:09:23;5.68;;;3.80;;
51764;SDS011;37835;53.256;6.456;2022-07-17T04:11:48;10.05;;;4.63;;
51764;SDS011;37835;53.256;6.456;2022-07-17T04:14:14;6.07;;;4.00;;
51764;SDS011;37835;53.256;6.456;2022-07-17T04:16:40;9.23;;;4.45;;
51764;SDS011;37835;53.256;6.456;2022-07-17T04:19:05;8.55;;;3.67;;
51764;SDS011;37835;53.256;6.456;2022-07-17T04:21:31;6.05;;;4.07;;
51764;SDS011;37835;53.256;6.456;2022-07-17T04:23:56;10.38;;;4.00;;
51764;SDS011;37835;53.256;6.456;2022-07-17T04:26:22;11.48;;;4.30;;
51764;SDS011;37835;53.256;6.456;2022-07-17T04:28:48;6.70;;;4.28;;
51764;SDS011;37835;53.256;6.456;2022-07-17T04:31:13;7.43;;;3.97;;
51764;SDS011;37835;53.256;6.456;2022-07-17T04:33:39;5.43;;;4.00;;
51764;SDS011;37835;53.256;6.456;2022-07-17T04:36:04;6.10;;;4.03;;
51764;SDS011;37835;53.256;6.456;2022-07-17T04:38:30;7.68;;;4.03;;
51764;SDS011;37835;53.256;6.456;2022-07-17T04:40:55;9.68;;;4.22;;
51764;SDS011;37835;53.256;6.456;2022-07-17T04:43:22;4.40;;;3.92;;
51764;SDS011;37835;53.256;6.456;2022-07-17T04:45:47;8.50;;;4.53;;
51764;SDS011;37835;53.256;6.456;2022-07-17T04:48:13;10.77;;;4.15;;
51764;SDS011;37835;53.256;6.456;2022-07-17T04:50:39;7.88;;;3.95;;
51764;SDS011;37835;53.256;6.456;2022-07-17T04:53:04;8.35;;;4.15;;
51764;SDS011;37835;53.256;6.456;2022-07-17T04:55:30;7.93;;;4.10;;
51764;SDS011;37835;53.256;6.456;2022-07-17T04:57:56;9.13;;;4.15;;
51764;SDS011;37835;53.256;6.456;2022-07-17T05:00:21;8.38;;;3.90;;
51764;SDS011;37835;53.256;6.456;2022-07-17T05:02:47;9.60;;;4.53;;
51764;SDS011;37835;53.256;6.456;2022-07-17T05:05:13;5.97;;;4.20;;
51764;SDS011;37835;53.256;6.456;2022-07-17T05:07:38;7.35;;;4.20;;
51764;SDS011;37835;53.256;6.456;2022-07-17T05:10:05;5.25;;;3.47;;
51764;SDS011;37835;53.256;6.456;2022-07-17T05:12:31;5.95;;;3.65;;
51764;SDS011;37835;53.256;6.456;2022-07-17T05:14:56;5.80;;;4.32;;
51764;SDS011;37835;53.256;6.456;2022-07-17T05:17:22;9.73;;;3.78;;
51764;SDS011;37835;53.256;6.456;2022-07-17T05:19:48;5.15;;;3.83;;
51764;SDS011;37835;53.256;6.456;2022-07-17T05:22:13;6.22;;;3.83;;
51764;SDS011;37835;53.256;6.456;2022-07-17T05:24:39;7.75;;;3.80;;
51764;SDS011;37835;53.256;6.456;2022-07-17T05:27:05;5.07;;;3.60;;
51764;SDS011;37835;53.256;6.456;2022-07-17T05:29:31;6.53;;;3.67;;
51764;SDS011;37835;53.256;6.456;2022-07-17T05:31:57;6.20;;;3.83;;
51764;SDS011;37835;53.256;6.456;2022-07-17T05:34:22;8.77;;;3.53;;
51764;SDS011;37835;53.256;6.456;2022-07-17T05:36:48;6.18;;;3.35;;
51764;SDS011;37835;53.256;6.456;2022-07-17T05:39:14;5.25;;;3.72;;
51764;SDS011;37835;53.256;6.456;2022-07-17T05:41:40;8.48;;;3.50;;
51764;SDS011;37835;53.256;6.456;2022-07-17T05:44:08;5.90;;;3.10;;
51764;SDS011;37835;53.256;6.456;2022-07-17T05:46:34;5.13;;;2.83;;
51764;SDS011;37835;53.256;6.456;2022-07-17T05:48:59;7.75;;;3.28;;
51764;SDS011;37835;53.256;6.456;2022-07-17T05:51:25;5.97;;;2.70;;
51764;SDS011;37835;53.256;6.456;2022-07-17T05:53:51;7.82;;;2.72;;
51764;SDS011;37835;53.256;6.456;2022-07-17T05:56:16;7.13;;;2.45;;
51764;SDS011;37835;53.256;6.456;2022-07-17T05:58:42;4.20;;;2.08;;
51764;SDS011;37835;53.256;6.456;2022-07-17T06:01:07;5.88;;;2.13;;
51764;SDS011;37835;53.256;6.456;2022-07-17T06:03:33;4.90;;;2.00;;
51764;SDS011;37835;53.256;6.456;2022-07-17T06:05:59;10.52;;;2.15;;
51764;SDS011;37835;53.256;6.456;2022-07-17T06:08:24;5.38;;;2.17;;
51764;SDS011;37835;53.256;6.456;2022-07-17T06:10:50;3.20;;;1.77;;
51764;SDS011;37835;53.256;6.456;2022-07-17T06:13:15;5.88;;;1.67;;
51764;SDS011;37835;53.256;6.456;2022-07-17T06:15:41;9.35;;;1.90;;
51764;SDS011;37835;53.256;6.456;2022-07-17T06:18:07;5.22;;;2.00;;
51764;SDS011;37835;53.256;6.456;2022-07-17T06:20:32;3.88;;;1.40;;
51764;SDS011;37835;53.256;6.456;2022-07-17T06:22:58;8.95;;;1.83;;
51764;SDS011;37835;53.256;6.456;2022-07-17T06:25:24;6.40;;;1.48;;
51764;SDS011;37835;53.256;6.456;2022-07-17T06:27:49;6.88;;;1.50;;
51764;SDS011;37835;53.256;6.456;2022-07-17T06:30:15;4.22;;;1.40;;
51764;SDS011;37835;53.256;6.456;2022-07-17T06:32:41;8.18;;;1.42;;
51764;SDS011;37835;53.256;6.456;2022-07-17T06:35:08;3.20;;;1.10;;
51764;SDS011;37835;53.256;6.456;2022-07-17T06:37:34;5.07;;;1.40;;
51764;SDS011;37835;53.256;6.456;2022-07-17T06:40:00;7.45;;;1.25;;
51764;SDS011;37835;53.256;6.456;2022-07-17T06:42:26;7.10;;;1.88;;
51764;SDS011;37835;53.256;6.456;2022-07-17T06:44:52;5.45;;;1.52;;
51764;SDS011;37835;53.256;6.456;2022-07-17T06:47:18;6.93;;;1.42;;
51764;SDS011;37835;53.256;6.456;2022-07-17T06:49:43;7.65;;;1.77;;
51764;SDS011;37835;53.256;6.456;2022-07-17T06:52:09;6.40;;;1.83;;
51764;SDS011;37835;53.256;6.456;2022-07-17T06:54:35;3.03;;;1.30;;
51764;SDS011;37835;53.256;6.456;2022-07-17T06:57:00;5.82;;;1.40;;
51764;SDS011;37835;53.256;6.456;2022-07-17T06:59:26;5.78;;;1.30;;
51764;SDS011;37835;53.256;6.456;2022-07-17T07:01:52;5.43;;;1.38;;
51764;SDS011;37835;53.256;6.456;2022-07-17T07:04:17;2.63;;;1.20;;
51764;SDS011;37835;53.256;6.456;2022-07-17T07:06:43;4.63;;;1.20;;
51764;SDS011;37835;53.256;6.456;2022-07-17T07:09:09;6.53;;;1.65;;
51764;SDS011;37835;53.256;6.456;2022-07-17T07:11:36;5.10;;;1.17;;
51764;SDS011;37835;53.256;6.456;2022-07-17T07:14:03;10.38;;;1.60;;
51764;SDS011;37835;53.256;6.456;2022-07-17T07:16:28;4.05;;;1.05;;
51764;SDS011;37835;53.256;6.456;2022-07-17T07:18:54;4.85;;;1.10;;
51764;SDS011;37835;53.256;6.456;2022-07-17T07:21:19;7.40;;;1.27;;
51764;SDS011;37835;53.256;6.456;2022-07-17T07:23:45;6.32;;;1.40;;
51764;SDS011;37835;53.256;6.456;2022-07-17T07:26:12;7.85;;;1.50;;
51764;SDS011;37835;53.256;6.456;2022-07-17T07:28:37;10.40;;;1.92;;
51764;SDS011;37835;53.256;6.456;2022-07-17T07:31:03;4.68;;;1.08;;
51764;SDS011;37835;53.256;6.456;2022-07-17T07:33:29;7.15;;;1.00;;
51764;SDS011;37835;53.256;6.456;2022-07-17T07:35:54;8.85;;;1.30;;
51764;SDS011;37835;53.256;6.456;2022-07-17T07:38:20;6.22;;;1.08;;
51764;SDS011;37835;53.256;6.456;2022-07-17T07:40:45;6.68;;;0.95;;
51764;SDS011;37835;53.256;6.456;2022-07-17T07:43:11;6.10;;;1.13;;
51764;SDS011;37835;53.256;6.456;2022-07-17T07:45:37;4.95;;;1.10;;
51764;SDS011;37835;53.256;6.456;2022-07-17T07:48:02;4.88;;;1.10;;
51764;SDS011;37835;53.256;6.456;2022-07-17T07:50:28;3.90;;;1.08;;
51764;SDS011;37835;53.256;6.456;2022-07-17T07:52:54;5.47;;;0.93;;
51764;SDS011;37835;53.256;6.456;2022-07-17T07:55:20;7.88;;;1.40;;
51764;SDS011;37835;53.256;6.456;2022-07-17T07:57:46;6.38;;;1.08;;
51764;SDS011;37835;53.256;6.456;2022-07-17T08:00:13;6.45;;;1.33;;
51764;SDS011;37835;53.256;6.456;2022-07-17T08:02:40;6.82;;;1.17;;
51764;SDS011;37835;53.256;6.456;2022-07-17T08:05:06;5.07;;;0.88;;
51764;SDS011;37835;53.256;6.456;2022-07-17T08:07:34;5.97;;;1.05;;
51764;SDS011;37835;53.256;6.456;2022-07-17T08:10:00;5.65;;;1.40;;
51764;SDS011;37835;53.256;6.456;2022-07-17T08:12:26;6.43;;;1.08;;
51764;SDS011;37835;53.256;6.456;2022-07-17T08:14:52;7.38;;;1.23;;
51764;SDS011;37835;53.256;6.456;2022-07-17T08:17:18;5.38;;;0.95;;
51764;SDS011;37835;53.256;6.456;2022-07-17T08:19:44;5.20;;;1.23;;
51764;SDS011;37835;53.256;6.456;2022-07-17T08:22:10;2.92;;;0.80;;
51764;SDS011;37835;53.256;6.456;2022-07-17T08:24:37;3.45;;;0.70;;
51764;SDS011;37835;53.256;6.456;2022-07-17T08:27:03;4.10;;;1.00;;
51764;SDS011;37835;53.256;6.456;2022-07-17T08:29:29;3.90;;;0.90;;
51764;SDS011;37835;53.256;6.456;2022-07-17T08:31:55;3.22;;;0.88;;
51764;SDS011;37835;53.256;6.456;2022-07-17T08:34:21;3.22;;;0.82;;
51764;SDS011;37835;53.256;6.456;2022-07-17T08:36:46;3.83;;;1.02;;
51764;SDS011;37835;53.256;6.456;2022-07-17T08:39:12;3.95;;;0.60;;
51764;SDS011;37835;53.256;6.456;2022-07-17T08:41:38;3.78;;;0.90;;
51764;SDS011;37835;53.256;6.456;2022-07-17T08:44:04;2.13;;;0.70;;
51764;SDS011;37835;53.256;6.456;2022-07-17T08:46:30;6.72;;;0.80;;
51764;SDS011;37835;53.256;6.456;2022-07-17T08:49:00;5.53;;;1.25;;
51764;SDS011;37835;53.256;6.456;2022-07-17T08:51:27;4.78;;;0.98;;
51764;SDS011;37835;53.256;6.456;2022-07-17T08:53:53;5.72;;;1.00;;
51764;SDS011;37835;53.256;6.456;2022-07-17T08:56:19;5.88;;;0.90;;
51764;SDS011;37835;53.256;6.456;2022-07-17T08:58:45;5.53;;;1.10;;
51764;SDS011;37835;53.256;6.456;2022-07-17T09:01:11;3.20;;;0.85;;
51764;SDS011;37835;53.256;6.456;2022-07-17T09:03:38;3.80;;;0.93;;
51764;SDS011;37835;53.256;6.456;2022-07-17T09:06:16;3.90;;;0.88;;
51764;SDS011;37835;53.256;6.456;2022-07-17T09:08:42;4.00;;;1.08;;
51764;SDS011;37835;53.256;6.456;2022-07-17T09:11:08;5.15;;;0.95;;
51764;SDS011;37835;53.256;6.456;2022-07-17T09:13:34;4.03;;;0.90;;
51764;SDS011;37835;53.256;6.456;2022-07-17T09:18:46;5.60;;;1.10;;
51764;SDS011;37835;53.256;6.456;2022-07-17T09:21:17;3.92;;;1.05;;
51764;SDS011;37835;53.256;6.456;2022-07-17T09:24:04;5.82;;;1.00;;
51764;SDS011;37835;53.256;6.456;2022-07-17T09:26:32;5.47;;;0.80;;
51764;SDS011;37835;53.256;6.456;2022-07-17T09:29:02;5.38;;;0.93;;
51764;SDS011;37835;53.256;6.456;2022-07-17T09:31:29;3.38;;;0.70;;
51764;SDS011;37835;53.256;6.456;2022-07-17T09:33:57;4.47;;;0.93;;
51764;SDS011;37835;53.256;6.456;2022-07-17T09:36:23;3.60;;;1.15;;
51764;SDS011;37835;53.256;6.456;2022-07-17T09:38:52;6.93;;;1.00;;
51764;SDS011;37835;53.256;6.456;2022-07-17T09:41:19;1.45;;;0.80;;
51764;SDS011;37835;53.256;6.456;2022-07-17T09:43:48;2.65;;;0.90;;
51764;SDS011;37835;53.256;6.456;2022-07-17T09:46:16;5.25;;;1.02;;
51764;SDS011;37835;53.256;6.456;2022-07-17T09:48:44;2.20;;;0.98;;
51764;SDS011;37835;53.256;6.456;2022-07-17T09:51:20;2.22;;;0.77;;
51764;SDS011;37835;53.256;6.456;2022-07-17T09:53:51;3.05;;;0.80;;
51764;SDS011;37835;53.256;6.456;2022-07-17T09:56:19;3.00;;;1.10;;
51764;SDS011;37835;53.256;6.456;2022-07-17T09:58:50;2.97;;;0.60;;
51764;SDS011;37835;53.256;6.456;2022-07-17T10:01:17;4.20;;;0.83;;
51764;SDS011;37835;53.256;6.456;2022-07-17T10:03:44;6.32;;;1.00;;
51764;SDS011;37835;53.256;6.456;2022-07-17T10:06:10;3.63;;;1.00;;
51764;SDS011;37835;53.256;6.456;2022-07-17T10:08:36;4.93;;;0.80;;
51764;SDS011;37835;53.256;6.456;2022-07-17T10:11:04;2.97;;;0.93;;
51764;SDS011;37835;53.256;6.456;2022-07-17T10:13:30;3.40;;;1.25;;
51764;SDS011;37835;53.256;6.456;2022-07-17T10:15:56;2.20;;;0.75;;
51764;SDS011;37835;53.256;6.456;2022-07-17T10:18:33;4.20;;;0.90;;
51764;SDS011;37835;53.256;6.456;2022-07-17T10:21:16;2.17;;;1.02;;
51764;SDS011;37835;53.256;6.456;2022-07-17T10:23:47;3.15;;;0.75;;
51764;SDS011;37835;53.256;6.456;2022-07-17T10:26:33;3.15;;;1.10;;
51764;SDS011;37835;53.256;6.456;2022-07-17T10:29:07;5.32;;;1.25;;
51764;SDS011;37835;53.256;6.456;2022-07-17T10:31:34;4.82;;;0.90;;
51764;SDS011;37835;53.256;6.456;2022-07-17T10:34:04;2.33;;;0.93;;
51764;SDS011;37835;53.256;6.456;2022-07-17T10:36:35;5.80;;;1.20;;
51764;SDS011;37835;53.256;6.456;2022-07-17T10:39:12;3.10;;;0.95;;
51764;SDS011;37835;53.256;6.456;2022-07-17T10:41:59;4.18;;;1.20;;
51764;SDS011;37835;53.256;6.456;2022-07-17T10:44:26;10.45;;;1.08;;
51764;SDS011;37835;53.256;6.456;2022-07-17T10:46:55;4.28;;;1.10;;
51764;SDS011;37835;53.256;6.456;2022-07-17T10:49:25;2.30;;;0.82;;
51764;SDS011;37835;53.256;6.456;2022-07-17T10:51:51;3.80;;;1.00;;
51764;SDS011;37835;53.256;6.456;2022-07-17T10:54:19;3.45;;;0.93;;
51764;SDS011;37835;53.256;6.456;2022-07-17T10:56:46;3.22;;;1.27;;
51764;SDS011;37835;53.256;6.456;2022-07-17T10:59:13;2.28;;;1.00;;
51764;SDS011;37835;53.256;6.456;2022-07-17T11:01:38;1.67;;;0.80;;
51764;SDS011;37835;53.256;6.456;2022-07-17T11:04:04;3.45;;;1.00;;
51764;SDS011;37835;53.256;6.456;2022-07-17T11:06:35;1.25;;;0.80;;
51764;SDS011;37835;53.256;6.456;2022-07-17T11:09:07;2.58;;;0.85;;
51764;SDS011;37835;53.256;6.456;2022-07-17T11:16:58;2.42;;;0.90;;
51764;SDS011;37835;53.256;6.456;2022-07-17T11:19:25;4.75;;;0.90;;
51764;SDS011;37835;53.256;6.456;2022-07-17T11:22:00;1.77;;;0.88;;
51764;SDS011;37835;53.256;6.456;2022-07-17T11:27:07;4.68;;;0.90;;
51764;SDS011;37835;53.256;6.456;2022-07-17T11:29:37;1.77;;;0.82;;
51764;SDS011;37835;53.256;6.456;2022-07-17T11:32:06;2.78;;;0.70;;
51764;SDS011;37835;53.256;6.456;2022-07-17T11:34:32;2.05;;;0.85;;
51764;SDS011;37835;53.256;6.456;2022-07-17T11:37:03;3.00;;;0.77;;
51764;SDS011;37835;53.256;6.456;2022-07-17T11:42:02;1.95;;;0.82;;
51764;SDS011;37835;53.256;6.456;2022-07-17T11:44:29;4.50;;;0.80;;
51764;SDS011;37835;53.256;6.456;2022-07-17T11:46:54;2.22;;;1.05;;
51764;SDS011;37835;53.256;6.456;2022-07-17T11:49:30;3.25;;;1.45;;
51764;SDS011;37835;53.256;6.456;2022-07-17T11:51:59;4.72;;;1.27;;
51764;SDS011;37835;53.256;6.456;2022-07-17T11:54:45;2.17;;;1.00;;
51764;SDS011;37835;53.256;6.456;2022-07-17T11:57:16;3.15;;;1.25;;
51764;SDS011;37835;53.256;6.456;2022-07-17T11:59:43;3.75;;;1.30;;
51764;SDS011;37835;53.256;6.456;2022-07-17T12:02:11;1.67;;;1.00;;
51764;SDS011;37835;53.256;6.456;2022-07-17T12:07:18;3.22;;;1.27;;
51764;SDS011;37835;53.256;6.456;2022-07-17T12:09:45;3.40;;;1.30;;
51764;SDS011;37835;53.256;6.456;2022-07-17T12:12:26;2.65;;;1.10;;
51764;SDS011;37835;53.256;6.456;2022-07-17T12:14:56;1.88;;;1.00;;
51764;SDS011;37835;53.256;6.456;2022-07-17T12:17:24;2.30;;;1.20;;
51764;SDS011;37835;53.256;6.456;2022-07-17T12:19:51;2.05;;;1.27;;
51764;SDS011;37835;53.256;6.456;2022-07-17T12:22:17;1.67;;;1.20;;
51764;SDS011;37835;53.256;6.456;2022-07-17T12:24:43;4.07;;;1.08;;
51764;SDS011;37835;53.256;6.456;2022-07-17T12:27:11;3.55;;;1.30;;
51764;SDS011;37835;53.256;6.456;2022-07-17T12:29:38;2.70;;;1.42;;
51764;SDS011;37835;53.256;6.456;2022-07-17T12:32:09;1.50;;;1.40;;
51764;SDS011;37835;53.256;6.456;2022-07-17T12:34:37;3.80;;;1.98;;
51764;SDS011;37835;53.256;6.456;2022-07-17T12:37:10;3.30;;;1.38;;
51764;SDS011;37835;53.256;6.456;2022-07-17T12:39:37;4.68;;;1.65;;
51764;SDS011;37835;53.256;6.456;2022-07-17T12:42:03;4.82;;;1.55;;
51764;SDS011;37835;53.256;6.456;2022-07-17T12:44:29;2.90;;;1.52;;
51764;SDS011;37835;53.256;6.456;2022-07-17T12:46:55;7.85;;;1.80;;
51764;SDS011;37835;53.256;6.456;2022-07-17T12:49:21;4.40;;;2.25;;
51764;SDS011;37835;53.256;6.456;2022-07-17T12:51:49;2.30;;;1.77;;
51764;SDS011;37835;53.256;6.456;2022-07-17T12:54:18;4.97;;;2.20;;
51764;SDS011;37835;53.256;6.456;2022-07-17T12:56:43;3.10;;;1.85;;
51764;SDS011;37835;53.256;6.456;2022-07-17T12:59:09;1.98;;;1.77;;
51764;SDS011;37835;53.256;6.456;2022-07-17T13:01:34;3.05;;;1.50;;
51764;SDS011;37835;53.256;6.456;2022-07-17T13:04:00;5.35;;;1.60;;
51764;SDS011;37835;53.256;6.456;2022-07-17T13:06:26;4.90;;;1.58;;
51764;SDS011;37835;53.256;6.456;2022-07-17T13:08:52;4.65;;;1.90;;
51764;SDS011;37835;53.256;6.456;2022-07-17T13:11:18;5.35;;;2.00;;
51764;SDS011;37835;53.256;6.456;2022-07-17T13:13:44;4.72;;;2.20;;
51764;SDS011;37835;53.256;6.456;2022-07-17T13:16:10;3.55;;;1.77;;
51764;SDS011;37835;53.256;6.456;2022-07-17T13:18:37;2.65;;;1.70;;
51764;SDS011;37835;53.256;6.456;2022-07-17T13:21:03;2.17;;;1.83;;
51764;SDS011;37835;53.256;6.456;2022-07-17T13:23:31;4.47;;;2.08;;
51764;SDS011;37835;53.256;6.456;2022-07-17T13:25:58;4.07;;;1.90;;
51764;SDS011;37835;53.256;6.456;2022-07-17T13:28:24;3.22;;;2.08;;
51764;SDS011;37835;53.256;6.456;2022-07-17T13:30:50;2.20;;;1.88;;
51764;SDS011;37835;53.256;6.456;2022-07-17T13:33:16;5.15;;;2.30;;
51764;SDS011;37835;53.256;6.456;2022-07-17T13:35:42;3.83;;;2.13;;
51764;SDS011;37835;53.256;6.456;2022-07-17T13:38:07;2.45;;;1.75;;
51764;SDS011;37835;53.256;6.456;2022-07-17T13:40:34;2.78;;;2.33;;
51764;SDS011;37835;53.256;6.456;2022-07-17T13:43:00;2.38;;;1.92;;
51764;SDS011;37835;53.256;6.456;2022-07-17T13:45:26;4.22;;;2.60;;
51764;SDS011;37835;53.256;6.456;2022-07-17T13:47:52;4.03;;;2.45;;
51764;SDS011;37835;53.256;6.456;2022-07-17T13:50:19;5.18;;;2.10;;
51764;SDS011;37835;53.256;6.456;2022-07-17T13:52:44;2.90;;;2.00;;
51764;SDS011;37835;53.256;6.456;2022-07-17T13:55:10;5.18;;;2.05;;
51764;SDS011;37835;53.256;6.456;2022-07-17T13:57:36;2.72;;;2.10;;
51764;SDS011;37835;53.256;6.456;2022-07-17T14:00:02;1.95;;;1.80;;
51764;SDS011;37835;53.256;6.456;2022-07-17T14:02:28;3.00;;;1.80;;
51764;SDS011;37835;53.256;6.456;2022-07-17T14:04:54;2.63;;;1.90;;
51764;SDS011;37835;53.256;6.456;2022-07-17T14:07:20;2.30;;;2.10;;
51764;SDS011;37835;53.256;6.456;2022-07-17T14:09:46;2.65;;;2.08;;
51764;SDS011;37835;53.256;6.456;2022-07-17T14:12:12;2.63;;;1.90;;
51764;SDS011;37835;53.256;6.456;2022-07-17T14:14:37;3.28;;;2.00;;
51764;SDS011;37835;53.256;6.456;2022-07-17T14:17:03;2.90;;;1.77;;
51764;SDS011;37835;53.256;6.456;2022-07-17T14:19:29;4.55;;;1.92;;
51764;SDS011;37835;53.256;6.456;2022-07-17T14:21:54;3.42;;;2.47;;
51764;SDS011;37835;53.256;6.456;2022-07-17T14:24:20;4.07;;;2.08;;
51764;SDS011;37835;53.256;6.456;2022-07-17T14:26:46;2.88;;;2.10;;
51764;SDS011;37835;53.256;6.456;2022-07-17T14:29:13;3.05;;;1.75;;
51764;SDS011;37835;53.256;6.456;2022-07-17T14:31:39;2.47;;;2.17;;
51764;SDS011;37835;53.256;6.456;2022-07-17T14:34:05;4.70;;;2.10;;
51764;SDS011;37835;53.256;6.456;2022-07-17T14:36:30;4.80;;;2.50;;
51764;SDS011;37835;53.256;6.456;2022-07-17T14:38:56;4.90;;;2.20;;
51764;SDS011;37835;53.256;6.456;2022-07-17T14:41:22;2.83;;;1.85;;
51764;SDS011;37835;53.256;6.456;2022-07-17T14:43:47;3.75;;;1.85;;
51764;SDS011;37835;53.256;6.456;2022-07-17T14:46:13;2.92;;;1.88;;
51764;SDS011;37835;53.256;6.456;2022-07-17T14:48:39;2.22;;;2.03;;
51764;SDS011;37835;53.256;6.456;2022-07-17T14:51:05;8.57;;;2.15;;
51764;SDS011;37835;53.256;6.456;2022-07-17T14:53:31;3.15;;;2.17;;
51764;SDS011;37835;53.256;6.456;2022-07-17T14:55:57;3.17;;;2.30;;
51764;SDS011;37835;53.256;6.456;2022-07-17T14:58:23;2.60;;;1.90;;